sensor_id;sensor_type;location;lat;lon;timestamp;P1;durP1;ratioP1;P2;durP2;ratioP2
73113;SDS011;61301;51.956;5.876;2023-07-29T00:00:57;2.80;;;2.50;;
73113;SDS011;61301;51.956;5.876;2023-07-29T00:03:23;2.03;;;1.83;;
73113;SDS011;61301;51.956;5.876;2023-07-29T00:05:49;1.70;;;1.60;;
73113;SDS011;61301;51.956;5.876;2023-07-29T00:08:15;2.35;;;1.05;;
73113;SDS011;61301;51.956;5.876;2023-07-29T00:10:41;1.08;;;0.98;;
73113;SDS011;61301;51.956;5.876;2023-07-29T00:13:07;1.92;;;1.60;;
73113;SDS011;61301;51.956;5.876;2023-07-29T00:15:33;1.60;;;1.50;;
73113;SDS011;61301;51.956;5.876;2023-07-29T00:17:59;2.22;;;2.03;;
73113;SDS011;61301;51.956;5.876;2023-07-29T00:20:26;4.03;;;2.55;;
73113;SDS011;61301;51.956;5.876;2023-07-29T00:22:52;3.22;;;2.80;;
73113;SDS011;61301;51.956;5.876;2023-07-29T00:25:21;2.60;;;1.70;;
73113;SDS011;61301;51.956;5.876;2023-07-29T00:27:47;1.63;;;1.48;;
73113;SDS011;61301;51.956;5.876;2023-07-29T00:30:13;1.33;;;0.93;;
73113;SDS011;61301;51.956;5.876;2023-07-29T00:32:39;0.93;;;0.90;;
73113;SDS011;61301;51.956;5.876;2023-07-29T00:35:05;1.80;;;1.00;;
73113;SDS011;61301;51.956;5.876;2023-07-29T00:37:32;1.15;;;0.90;;
73113;SDS011;61301;51.956;5.876;2023-07-29T00:39:58;1.60;;;1.45;;
73113;SDS011;61301;51.956;5.876;2023-07-29T00:42:24;1.92;;;1.73;;
73113;SDS011;61301;51.956;5.876;2023-07-29T00:44:50;1.60;;;1.30;;
73113;SDS011;61301;51.956;5.876;2023-07-29T00:47:16;1.40;;;1.00;;
73113;SDS011;61301;51.956;5.876;2023-07-29T00:49:44;1.40;;;1.30;;
73113;SDS011;61301;51.956;5.876;2023-07-29T00:52:11;1.40;;;1.30;;
73113;SDS011;61301;51.956;5.876;2023-07-29T00:54:41;3.35;;;2.30;;
73113;SDS011;61301;51.956;5.876;2023-07-29T00:57:08;3.17;;;2.88;;
73113;SDS011;61301;51.956;5.876;2023-07-29T00:59:35;2.97;;;2.42;;
73113;SDS011;61301;51.956;5.876;2023-07-29T01:02:02;2.58;;;2.38;;
73113;SDS011;61301;51.956;5.876;2023-07-29T01:04:30;2.17;;;1.95;;
73113;SDS011;61301;51.956;5.876;2023-07-29T01:10:01;1.45;;;1.35;;
73113;SDS011;61301;51.956;5.876;2023-07-29T01:12:41;1.27;;;1.13;;
73113;SDS011;61301;51.956;5.876;2023-07-29T01:15:22;1.00;;;0.90;;
73113;SDS011;61301;51.956;5.876;2023-07-29T01:17:55;1.38;;;1.08;;
73113;SDS011;61301;51.956;5.876;2023-07-29T01:20:27;1.88;;;1.38;;
73113;SDS011;61301;51.956;5.876;2023-07-29T01:22:55;1.02;;;0.90;;
73113;SDS011;61301;51.956;5.876;2023-07-29T01:25:21;2.83;;;1.20;;
73113;SDS011;61301;51.956;5.876;2023-07-29T01:27:48;1.10;;;0.98;;
73113;SDS011;61301;51.956;5.876;2023-07-29T01:30:17;1.10;;;0.90;;
73113;SDS011;61301;51.956;5.876;2023-07-29T01:35:50;0.95;;;0.85;;
73113;SDS011;61301;51.956;5.876;2023-07-29T01:38:18;0.70;;;0.60;;
73113;SDS011;61301;51.956;5.876;2023-07-29T01:40:47;2.08;;;1.52;;
73113;SDS011;61301;51.956;5.876;2023-07-29T01:43:14;1.13;;;0.98;;
73113;SDS011;61301;51.956;5.876;2023-07-29T01:45:40;0.77;;;0.77;;
73113;SDS011;61301;51.956;5.876;2023-07-29T01:48:07;0.80;;;0.80;;
73113;SDS011;61301;51.956;5.876;2023-07-29T01:50:33;0.77;;;0.75;;
73113;SDS011;61301;51.956;5.876;2023-07-29T01:53:00;1.00;;;0.60;;
73113;SDS011;61301;51.956;5.876;2023-07-29T01:55:26;0.57;;;0.57;;
73113;SDS011;61301;51.956;5.876;2023-07-29T01:57:53;0.40;;;0.40;;
73113;SDS011;61301;51.956;5.876;2023-07-29T02:00:20;0.35;;;0.32;;
73113;SDS011;61301;51.956;5.876;2023-07-29T02:02:46;0.35;;;0.35;;
73113;SDS011;61301;51.956;5.876;2023-07-29T02:05:12;0.60;;;0.50;;
73113;SDS011;61301;51.956;5.876;2023-07-29T02:07:38;0.68;;;0.55;;
73113;SDS011;61301;51.956;5.876;2023-07-29T02:10:04;1.38;;;1.23;;
73113;SDS011;61301;51.956;5.876;2023-07-29T02:12:31;1.60;;;1.50;;
73113;SDS011;61301;51.956;5.876;2023-07-29T02:14:56;1.45;;;1.35;;
73113;SDS011;61301;51.956;5.876;2023-07-29T02:17:22;1.02;;;0.90;;
73113;SDS011;61301;51.956;5.876;2023-07-29T02:19:48;1.45;;;1.33;;
73113;SDS011;61301;51.956;5.876;2023-07-29T02:22:16;1.60;;;0.90;;
73113;SDS011;61301;51.956;5.876;2023-07-29T02:24:43;1.52;;;1.30;;
73113;SDS011;61301;51.956;5.876;2023-07-29T02:27:09;1.40;;;0.98;;
73113;SDS011;61301;51.956;5.876;2023-07-29T02:29:36;1.90;;;1.60;;
73113;SDS011;61301;51.956;5.876;2023-07-29T02:32:02;1.65;;;1.55;;
73113;SDS011;61301;51.956;5.876;2023-07-29T02:34:29;1.30;;;1.05;;
73113;SDS011;61301;51.956;5.876;2023-07-29T02:36:55;2.03;;;1.83;;
73113;SDS011;61301;51.956;5.876;2023-07-29T02:39:21;1.40;;;1.30;;
73113;SDS011;61301;51.956;5.876;2023-07-29T02:41:49;1.77;;;1.50;;
73113;SDS011;61301;51.956;5.876;2023-07-29T02:44:15;3.25;;;2.95;;
73113;SDS011;61301;51.956;5.876;2023-07-29T02:46:41;4.90;;;3.40;;
73113;SDS011;61301;51.956;5.876;2023-07-29T02:49:07;5.50;;;4.97;;
73113;SDS011;61301;51.956;5.876;2023-07-29T02:51:33;4.50;;;4.05;;
73113;SDS011;61301;51.956;5.876;2023-07-29T02:53:59;4.18;;;3.10;;
73113;SDS011;61301;51.956;5.876;2023-07-29T02:56:25;3.35;;;2.85;;
73113;SDS011;61301;51.956;5.876;2023-07-29T02:58:55;2.92;;;2.55;;
73113;SDS011;61301;51.956;5.876;2023-07-29T03:01:21;2.28;;;2.08;;
73113;SDS011;61301;51.956;5.876;2023-07-29T03:03:48;2.30;;;1.90;;
73113;SDS011;61301;51.956;5.876;2023-07-29T03:06:14;2.53;;;2.33;;
73113;SDS011;61301;51.956;5.876;2023-07-29T03:08:41;3.72;;;2.50;;
73113;SDS011;61301;51.956;5.876;2023-07-29T03:11:16;4.22;;;2.67;;
73113;SDS011;61301;51.956;5.876;2023-07-29T03:13:43;2.60;;;2.40;;
73113;SDS011;61301;51.956;5.876;2023-07-29T03:16:11;3.72;;;3.38;;
73113;SDS011;61301;51.956;5.876;2023-07-29T03:18:40;1.80;;;1.70;;
73113;SDS011;61301;51.956;5.876;2023-07-29T03:21:06;2.70;;;2.10;;
73113;SDS011;61301;51.956;5.876;2023-07-29T03:23:33;2.53;;;2.30;;
73113;SDS011;61301;51.956;5.876;2023-07-29T03:26:00;3.08;;;2.00;;
73113;SDS011;61301;51.956;5.876;2023-07-29T03:28:28;1.88;;;1.63;;
73113;SDS011;61301;51.956;5.876;2023-07-29T03:30:55;2.47;;;1.88;;
73113;SDS011;61301;51.956;5.876;2023-07-29T03:33:22;2.60;;;2.30;;
73113;SDS011;61301;51.956;5.876;2023-07-29T03:35:48;2.78;;;1.70;;
73113;SDS011;61301;51.956;5.876;2023-07-29T03:38:15;1.98;;;1.60;;
73113;SDS011;61301;51.956;5.876;2023-07-29T03:40:41;1.83;;;0.93;;
73113;SDS011;61301;51.956;5.876;2023-07-29T03:43:08;1.02;;;0.93;;
73113;SDS011;61301;51.956;5.876;2023-07-29T03:45:34;1.00;;;0.90;;
73113;SDS011;61301;51.956;5.876;2023-07-29T03:48:01;1.92;;;1.33;;
73113;SDS011;61301;51.956;5.876;2023-07-29T03:50:29;1.63;;;1.52;;
73113;SDS011;61301;51.956;5.876;2023-07-29T03:52:56;2.15;;;1.15;;
73113;SDS011;61301;51.956;5.876;2023-07-29T03:55:22;1.58;;;1.00;;
73113;SDS011;61301;51.956;5.876;2023-07-29T03:57:48;1.30;;;1.15;;
73113;SDS011;61301;51.956;5.876;2023-07-29T04:00:14;1.88;;;1.20;;
73113;SDS011;61301;51.956;5.876;2023-07-29T04:02:47;2.00;;;1.45;;
73113;SDS011;61301;51.956;5.876;2023-07-29T04:05:13;0.90;;;0.70;;
73113;SDS011;61301;51.956;5.876;2023-07-29T04:07:39;1.63;;;1.42;;
73113;SDS011;61301;51.956;5.876;2023-07-29T04:10:06;3.10;;;1.80;;
73113;SDS011;61301;51.956;5.876;2023-07-29T04:12:33;0.93;;;0.90;;
73113;SDS011;61301;51.956;5.876;2023-07-29T04:14:59;1.40;;;1.20;;
73113;SDS011;61301;51.956;5.876;2023-07-29T04:17:25;2.03;;;1.30;;
73113;SDS011;61301;51.956;5.876;2023-07-29T04:19:51;1.45;;;1.00;;
73113;SDS011;61301;51.956;5.876;2023-07-29T04:22:19;1.48;;;0.98;;
73113;SDS011;61301;51.956;5.876;2023-07-29T04:24:45;1.77;;;1.48;;
73113;SDS011;61301;51.956;5.876;2023-07-29T04:27:12;1.30;;;1.02;;
73113;SDS011;61301;51.956;5.876;2023-07-29T04:29:38;1.33;;;1.08;;
73113;SDS011;61301;51.956;5.876;2023-07-29T04:32:04;0.98;;;0.88;;
73113;SDS011;61301;51.956;5.876;2023-07-29T04:34:30;1.95;;;0.80;;
73113;SDS011;61301;51.956;5.876;2023-07-29T04:36:56;1.92;;;1.13;;
73113;SDS011;61301;51.956;5.876;2023-07-29T04:39:23;0.90;;;0.70;;
73113;SDS011;61301;51.956;5.876;2023-07-29T04:41:49;1.33;;;0.88;;
73113;SDS011;61301;51.956;5.876;2023-07-29T04:44:15;1.08;;;0.82;;
73113;SDS011;61301;51.956;5.876;2023-07-29T04:46:41;0.82;;;0.70;;
73113;SDS011;61301;51.956;5.876;2023-07-29T04:49:07;1.70;;;1.20;;
73113;SDS011;61301;51.956;5.876;2023-07-29T04:51:33;1.13;;;0.80;;
73113;SDS011;61301;51.956;5.876;2023-07-29T04:54:00;1.10;;;0.88;;
73113;SDS011;61301;51.956;5.876;2023-07-29T04:56:26;1.88;;;1.15;;
73113;SDS011;61301;51.956;5.876;2023-07-29T04:58:52;1.30;;;1.05;;
73113;SDS011;61301;51.956;5.876;2023-07-29T05:01:18;1.63;;;1.15;;
73113;SDS011;61301;51.956;5.876;2023-07-29T05:03:44;1.83;;;1.40;;
73113;SDS011;61301;51.956;5.876;2023-07-29T05:06:12;2.25;;;1.88;;
73113;SDS011;61301;51.956;5.876;2023-07-29T05:08:38;1.70;;;1.20;;
73113;SDS011;61301;51.956;5.876;2023-07-29T05:11:04;1.45;;;1.10;;
73113;SDS011;61301;51.956;5.876;2023-07-29T05:13:29;1.33;;;1.10;;
73113;SDS011;61301;51.956;5.876;2023-07-29T05:15:56;1.50;;;1.00;;
73113;SDS011;61301;51.956;5.876;2023-07-29T05:18:22;1.20;;;1.08;;
73113;SDS011;61301;51.956;5.876;2023-07-29T05:20:49;2.03;;;1.13;;
73113;SDS011;61301;51.956;5.876;2023-07-29T05:23:15;3.42;;;1.60;;
73113;SDS011;61301;51.956;5.876;2023-07-29T05:25:42;2.38;;;1.90;;
73113;SDS011;61301;51.956;5.876;2023-07-29T05:28:08;1.88;;;1.67;;
73113;SDS011;61301;51.956;5.876;2023-07-29T05:30:34;1.90;;;1.70;;
73113;SDS011;61301;51.956;5.876;2023-07-29T05:33:03;2.05;;;1.80;;
73113;SDS011;61301;51.956;5.876;2023-07-29T05:35:30;2.25;;;1.75;;
73113;SDS011;61301;51.956;5.876;2023-07-29T05:37:56;3.75;;;1.85;;
73113;SDS011;61301;51.956;5.876;2023-07-29T05:40:22;2.15;;;1.67;;
73113;SDS011;61301;51.956;5.876;2023-07-29T05:42:48;3.05;;;1.85;;
73113;SDS011;61301;51.956;5.876;2023-07-29T05:45:14;3.33;;;1.98;;
73113;SDS011;61301;51.956;5.876;2023-07-29T05:47:40;4.43;;;2.38;;
73113;SDS011;61301;51.956;5.876;2023-07-29T05:50:07;2.35;;;2.00;;
73113;SDS011;61301;51.956;5.876;2023-07-29T05:52:34;3.10;;;2.15;;
73113;SDS011;61301;51.956;5.876;2023-07-29T05:55:00;3.35;;;2.35;;
73113;SDS011;61301;51.956;5.876;2023-07-29T05:57:26;2.88;;;2.00;;
73113;SDS011;61301;51.956;5.876;2023-07-29T05:59:53;2.00;;;1.70;;
73113;SDS011;61301;51.956;5.876;2023-07-29T06:02:19;2.80;;;2.10;;
73113;SDS011;61301;51.956;5.876;2023-07-29T06:04:45;1.98;;;1.67;;
73113;SDS011;61301;51.956;5.876;2023-07-29T06:07:11;4.88;;;2.63;;
73113;SDS011;61301;51.956;5.876;2023-07-29T06:09:37;3.80;;;2.47;;
73113;SDS011;61301;51.956;5.876;2023-07-29T06:12:03;3.85;;;2.70;;
73113;SDS011;61301;51.956;5.876;2023-07-29T06:14:29;4.47;;;2.55;;
73113;SDS011;61301;51.956;5.876;2023-07-29T06:16:55;3.38;;;2.33;;
73113;SDS011;61301;51.956;5.876;2023-07-29T06:19:21;2.80;;;2.17;;
73113;SDS011;61301;51.956;5.876;2023-07-29T06:21:48;4.15;;;2.78;;
73113;SDS011;61301;51.956;5.876;2023-07-29T06:24:13;3.90;;;2.75;;
73113;SDS011;61301;51.956;5.876;2023-07-29T06:26:39;3.97;;;3.15;;
73113;SDS011;61301;51.956;5.876;2023-07-29T06:29:05;6.63;;;3.58;;
73113;SDS011;61301;51.956;5.876;2023-07-29T06:31:31;4.25;;;3.28;;
73113;SDS011;61301;51.956;5.876;2023-07-29T06:33:58;2.88;;;2.58;;
73113;SDS011;61301;51.956;5.876;2023-07-29T06:36:24;2.05;;;1.88;;
73113;SDS011;61301;51.956;5.876;2023-07-29T06:38:50;5.78;;;3.70;;
73113;SDS011;61301;51.956;5.876;2023-07-29T06:41:16;5.57;;;4.30;;
73113;SDS011;61301;51.956;5.876;2023-07-29T06:43:42;6.97;;;3.97;;
73113;SDS011;61301;51.956;5.876;2023-07-29T06:46:08;6.28;;;3.40;;
73113;SDS011;61301;51.956;5.876;2023-07-29T06:48:34;4.53;;;3.20;;
73113;SDS011;61301;51.956;5.876;2023-07-29T06:51:00;6.47;;;3.92;;
73113;SDS011;61301;51.956;5.876;2023-07-29T06:53:27;4.70;;;3.35;;
73113;SDS011;61301;51.956;5.876;2023-07-29T06:55:53;5.20;;;3.70;;
73113;SDS011;61301;51.956;5.876;2023-07-29T06:58:20;4.40;;;3.88;;
73113;SDS011;61301;51.956;5.876;2023-07-29T07:00:46;3.22;;;2.70;;
73113;SDS011;61301;51.956;5.876;2023-07-29T07:03:12;4.90;;;3.05;;
73113;SDS011;61301;51.956;5.876;2023-07-29T07:05:38;5.90;;;3.25;;
73113;SDS011;61301;51.956;5.876;2023-07-29T07:08:04;5.80;;;3.15;;
73113;SDS011;61301;51.956;5.876;2023-07-29T07:10:30;6.07;;;3.45;;
73113;SDS011;61301;51.956;5.876;2023-07-29T07:12:56;4.25;;;3.35;;
73113;SDS011;61301;51.956;5.876;2023-07-29T07:15:22;4.45;;;3.35;;
73113;SDS011;61301;51.956;5.876;2023-07-29T07:17:48;4.20;;;2.90;;
73113;SDS011;61301;51.956;5.876;2023-07-29T07:20:14;5.68;;;3.58;;
73113;SDS011;61301;51.956;5.876;2023-07-29T07:22:40;5.35;;;3.58;;
73113;SDS011;61301;51.956;5.876;2023-07-29T07:25:06;6.00;;;3.67;;
73113;SDS011;61301;51.956;5.876;2023-07-29T07:27:32;5.20;;;4.07;;
73113;SDS011;61301;51.956;5.876;2023-07-29T07:29:58;5.00;;;3.70;;
73113;SDS011;61301;51.956;5.876;2023-07-29T07:32:24;6.05;;;3.65;;
73113;SDS011;61301;51.956;5.876;2023-07-29T07:34:51;5.03;;;3.30;;
73113;SDS011;61301;51.956;5.876;2023-07-29T07:37:17;6.07;;;4.32;;
73113;SDS011;61301;51.956;5.876;2023-07-29T07:39:43;4.80;;;3.65;;
73113;SDS011;61301;51.956;5.876;2023-07-29T07:42:09;3.75;;;3.40;;
73113;SDS011;61301;51.956;5.876;2023-07-29T07:44:35;5.10;;;3.92;;
73113;SDS011;61301;51.956;5.876;2023-07-29T07:47:01;5.20;;;4.10;;
73113;SDS011;61301;51.956;5.876;2023-07-29T07:49:27;4.30;;;3.90;;
73113;SDS011;61301;51.956;5.876;2023-07-29T07:51:53;3.08;;;2.78;;
73113;SDS011;61301;51.956;5.876;2023-07-29T07:54:19;4.07;;;3.03;;
73113;SDS011;61301;51.956;5.876;2023-07-29T07:56:45;4.65;;;4.05;;
73113;SDS011;61301;51.956;5.876;2023-07-29T07:59:11;4.97;;;3.88;;
73113;SDS011;61301;51.956;5.876;2023-07-29T08:01:37;5.47;;;3.40;;
73113;SDS011;61301;51.956;5.876;2023-07-29T08:04:04;2.97;;;2.65;;
73113;SDS011;61301;51.956;5.876;2023-07-29T08:06:30;5.25;;;3.50;;
73113;SDS011;61301;51.956;5.876;2023-07-29T08:08:57;6.82;;;3.63;;
73113;SDS011;61301;51.956;5.876;2023-07-29T08:11:24;3.47;;;2.05;;
73113;SDS011;61301;51.956;5.876;2023-07-29T08:13:51;2.60;;;2.20;;
73113;SDS011;61301;51.956;5.876;2023-07-29T08:16:17;4.43;;;2.67;;
73113;SDS011;61301;51.956;5.876;2023-07-29T08:18:43;3.80;;;2.83;;
73113;SDS011;61301;51.956;5.876;2023-07-29T08:21:09;4.60;;;2.40;;
73113;SDS011;61301;51.956;5.876;2023-07-29T08:23:36;2.05;;;1.85;;
73113;SDS011;61301;51.956;5.876;2023-07-29T08:26:03;4.18;;;2.30;;
73113;SDS011;61301;51.956;5.876;2023-07-29T08:28:32;2.15;;;1.92;;
73113;SDS011;61301;51.956;5.876;2023-07-29T08:30:59;4.80;;;2.40;;
73113;SDS011;61301;51.956;5.876;2023-07-29T08:33:25;3.25;;;2.20;;
73113;SDS011;61301;51.956;5.876;2023-07-29T08:35:52;3.22;;;1.95;;
73113;SDS011;61301;51.956;5.876;2023-07-29T08:38:18;4.47;;;1.95;;
73113;SDS011;61301;51.956;5.876;2023-07-29T08:40:46;1.90;;;1.70;;
73113;SDS011;61301;51.956;5.876;2023-07-29T08:43:18;1.95;;;1.52;;
73113;SDS011;61301;51.956;5.876;2023-07-29T08:45:46;3.17;;;2.30;;
73113;SDS011;61301;51.956;5.876;2023-07-29T08:48:12;2.78;;;2.03;;
73113;SDS011;61301;51.956;5.876;2023-07-29T08:50:43;2.70;;;1.75;;
73113;SDS011;61301;51.956;5.876;2023-07-29T08:53:09;2.28;;;1.80;;
73113;SDS011;61301;51.956;5.876;2023-07-29T08:55:35;3.80;;;1.98;;
73113;SDS011;61301;51.956;5.876;2023-07-29T08:58:02;1.73;;;1.40;;
73113;SDS011;61301;51.956;5.876;2023-07-29T09:00:28;2.85;;;1.83;;
73113;SDS011;61301;51.956;5.876;2023-07-29T09:02:54;2.17;;;1.42;;
73113;SDS011;61301;51.956;5.876;2023-07-29T09:05:21;2.63;;;1.60;;
73113;SDS011;61301;51.956;5.876;2023-07-29T09:07:48;2.65;;;1.50;;
73113;SDS011;61301;51.956;5.876;2023-07-29T09:10:17;2.28;;;0.90;;
73113;SDS011;61301;51.956;5.876;2023-07-29T09:12:47;2.42;;;1.48;;
73113;SDS011;61301;51.956;5.876;2023-07-29T09:15:13;1.90;;;1.30;;
73113;SDS011;61301;51.956;5.876;2023-07-29T09:17:51;2.15;;;1.80;;
73113;SDS011;61301;51.956;5.876;2023-07-29T09:20:22;1.52;;;1.30;;
73113;SDS011;61301;51.956;5.876;2023-07-29T09:22:50;3.22;;;1.40;;
73113;SDS011;61301;51.956;5.876;2023-07-29T09:25:16;4.22;;;1.58;;
73113;SDS011;61301;51.956;5.876;2023-07-29T09:27:47;2.80;;;1.65;;
73113;SDS011;61301;51.956;5.876;2023-07-29T09:30:16;2.22;;;1.40;;
73113;SDS011;61301;51.956;5.876;2023-07-29T09:32:43;1.60;;;1.33;;
73113;SDS011;61301;51.956;5.876;2023-07-29T09:35:11;3.58;;;1.20;;
73113;SDS011;61301;51.956;5.876;2023-07-29T09:37:38;2.25;;;1.25;;
73113;SDS011;61301;51.956;5.876;2023-07-29T09:40:05;4.63;;;1.50;;
73113;SDS011;61301;51.956;5.876;2023-07-29T09:42:32;1.75;;;0.93;;
73113;SDS011;61301;51.956;5.876;2023-07-29T09:44:58;2.15;;;0.70;;
73113;SDS011;61301;51.956;5.876;2023-07-29T09:47:25;3.00;;;0.95;;
73113;SDS011;61301;51.956;5.876;2023-07-29T09:49:51;2.03;;;1.40;;
73113;SDS011;61301;51.956;5.876;2023-07-29T09:52:19;1.23;;;1.00;;
73113;SDS011;61301;51.956;5.876;2023-07-29T09:54:47;1.98;;;1.35;;
73113;SDS011;61301;51.956;5.876;2023-07-29T09:57:14;2.78;;;1.25;;
73113;SDS011;61301;51.956;5.876;2023-07-29T09:59:41;2.33;;;1.30;;
73113;SDS011;61301;51.956;5.876;2023-07-29T10:02:13;1.92;;;1.13;;
73113;SDS011;61301;51.956;5.876;2023-07-29T10:07:09;1.88;;;1.30;;
73113;SDS011;61301;51.956;5.876;2023-07-29T10:09:36;3.22;;;1.50;;
73113;SDS011;61301;51.956;5.876;2023-07-29T10:12:04;3.60;;;1.85;;
73113;SDS011;61301;51.956;5.876;2023-07-29T10:14:32;2.55;;;1.48;;
73113;SDS011;61301;51.956;5.876;2023-07-29T10:16:58;2.03;;;1.35;;
73113;SDS011;61301;51.956;5.876;2023-07-29T10:19:26;3.00;;;1.25;;
73113;SDS011;61301;51.956;5.876;2023-07-29T10:21:52;2.38;;;1.33;;
73113;SDS011;61301;51.956;5.876;2023-07-29T10:24:22;1.25;;;1.02;;
73113;SDS011;61301;51.956;5.876;2023-07-29T10:26:58;1.25;;;1.10;;
73113;SDS011;61301;51.956;5.876;2023-07-29T10:29:37;2.00;;;1.50;;
73113;SDS011;61301;51.956;5.876;2023-07-29T10:32:04;3.35;;;1.60;;
73113;SDS011;61301;51.956;5.876;2023-07-29T10:34:32;1.75;;;1.33;;
73113;SDS011;61301;51.956;5.876;2023-07-29T10:37:04;2.42;;;1.60;;
73113;SDS011;61301;51.956;5.876;2023-07-29T10:39:40;2.83;;;1.65;;
73113;SDS011;61301;51.956;5.876;2023-07-29T10:42:16;2.67;;;1.33;;
73113;SDS011;61301;51.956;5.876;2023-07-29T10:44:46;2.17;;;1.20;;
73113;SDS011;61301;51.956;5.876;2023-07-29T10:47:15;1.58;;;1.45;;
73113;SDS011;61301;51.956;5.876;2023-07-29T10:49:46;1.50;;;1.40;;
73113;SDS011;61301;51.956;5.876;2023-07-29T10:52:15;2.50;;;1.63;;
73113;SDS011;61301;51.956;5.876;2023-07-29T10:54:43;3.25;;;1.05;;
73113;SDS011;61301;51.956;5.876;2023-07-29T10:57:13;2.08;;;1.52;;
73113;SDS011;61301;51.956;5.876;2023-07-29T10:59:41;2.03;;;1.45;;
73113;SDS011;61301;51.956;5.876;2023-07-29T11:02:28;1.98;;;1.42;;
73113;SDS011;61301;51.956;5.876;2023-07-29T11:04:55;5.53;;;1.55;;
73113;SDS011;61301;51.956;5.876;2023-07-29T11:07:21;1.83;;;1.30;;
73113;SDS011;61301;51.956;5.876;2023-07-29T11:09:54;2.03;;;1.48;;
73113;SDS011;61301;51.956;5.876;2023-07-29T11:12:42;1.60;;;1.00;;
73113;SDS011;61301;51.956;5.876;2023-07-29T11:15:15;1.20;;;0.90;;
73113;SDS011;61301;51.956;5.876;2023-07-29T11:17:49;1.20;;;0.90;;
73113;SDS011;61301;51.956;5.876;2023-07-29T11:20:20;1.92;;;1.30;;
73113;SDS011;61301;51.956;5.876;2023-07-29T11:22:48;2.88;;;1.13;;
73113;SDS011;61301;51.956;5.876;2023-07-29T11:25:16;1.15;;;1.05;;
73113;SDS011;61301;51.956;5.876;2023-07-29T11:27:43;1.40;;;0.90;;
73113;SDS011;61301;51.956;5.876;2023-07-29T11:30:10;1.65;;;1.27;;
73113;SDS011;61301;51.956;5.876;2023-07-29T11:32:37;2.58;;;1.20;;
73113;SDS011;61301;51.956;5.876;2023-07-29T11:35:05;2.95;;;1.20;;
73113;SDS011;61301;51.956;5.876;2023-07-29T11:37:42;2.92;;;1.23;;
73113;SDS011;61301;51.956;5.876;2023-07-29T11:40:12;2.10;;;1.30;;
73113;SDS011;61301;51.956;5.876;2023-07-29T11:42:40;1.70;;;1.17;;
73113;SDS011;61301;51.956;5.876;2023-07-29T11:45:09;3.33;;;1.40;;
73113;SDS011;61301;51.956;5.876;2023-07-29T11:47:36;2.50;;;1.58;;
73113;SDS011;61301;51.956;5.876;2023-07-29T11:50:03;1.63;;;1.42;;
73113;SDS011;61301;51.956;5.876;2023-07-29T11:52:40;1.35;;;1.13;;
73113;SDS011;61301;51.956;5.876;2023-07-29T11:55:08;3.38;;;1.30;;
73113;SDS011;61301;51.956;5.876;2023-07-29T11:57:35;1.92;;;1.27;;
73113;SDS011;61301;51.956;5.876;2023-07-29T12:00:03;2.17;;;1.70;;
73113;SDS011;61301;51.956;5.876;2023-07-29T12:02:35;4.68;;;1.45;;
73113;SDS011;61301;51.956;5.876;2023-07-29T12:05:03;0.93;;;0.60;;
73113;SDS011;61301;51.956;5.876;2023-07-29T12:07:30;2.03;;;0.90;;
73113;SDS011;61301;51.956;5.876;2023-07-29T12:09:57;1.23;;;0.90;;
73113;SDS011;61301;51.956;5.876;2023-07-29T12:12:23;3.90;;;1.15;;
73113;SDS011;61301;51.956;5.876;2023-07-29T12:14:49;1.60;;;1.00;;
73113;SDS011;61301;51.956;5.876;2023-07-29T12:17:15;1.80;;;0.70;;
73113;SDS011;61301;51.956;5.876;2023-07-29T12:19:41;6.20;;;1.00;;
73113;SDS011;61301;51.956;5.876;2023-07-29T12:22:09;1.10;;;1.00;;
73113;SDS011;61301;51.956;5.876;2023-07-29T12:24:39;1.48;;;0.50;;
73113;SDS011;61301;51.956;5.876;2023-07-29T12:27:09;1.10;;;0.70;;
73113;SDS011;61301;51.956;5.876;2023-07-29T12:29:40;2.05;;;1.13;;
73113;SDS011;61301;51.956;5.876;2023-07-29T12:32:07;1.58;;;0.65;;
73113;SDS011;61301;51.956;5.876;2023-07-29T12:34:33;0.88;;;0.70;;
73113;SDS011;61301;51.956;5.876;2023-07-29T12:37:02;1.15;;;0.70;;
73113;SDS011;61301;51.956;5.876;2023-07-29T12:39:30;1.48;;;0.73;;
73113;SDS011;61301;51.956;5.876;2023-07-29T12:41:58;1.08;;;0.73;;
73113;SDS011;61301;51.956;5.876;2023-07-29T12:44:32;1.95;;;0.70;;
73113;SDS011;61301;51.956;5.876;2023-07-29T12:47:00;2.63;;;1.02;;
73113;SDS011;61301;51.956;5.876;2023-07-29T12:49:28;1.45;;;0.85;;
73113;SDS011;61301;51.956;5.876;2023-07-29T12:51:58;1.27;;;0.75;;
73113;SDS011;61301;51.956;5.876;2023-07-29T12:54:24;1.67;;;1.10;;
73113;SDS011;61301;51.956;5.876;2023-07-29T12:56:51;2.25;;;1.00;;
73113;SDS011;61301;51.956;5.876;2023-07-29T12:59:17;1.67;;;1.20;;
73113;SDS011;61301;51.956;5.876;2023-07-29T13:01:43;2.72;;;1.10;;
73113;SDS011;61301;51.956;5.876;2023-07-29T13:04:15;1.85;;;1.02;;
73113;SDS011;61301;51.956;5.876;2023-07-29T13:06:41;3.65;;;1.10;;
73113;SDS011;61301;51.956;5.876;2023-07-29T13:09:09;2.13;;;1.10;;
73113;SDS011;61301;51.956;5.876;2023-07-29T13:11:35;1.60;;;1.30;;
73113;SDS011;61301;51.956;5.876;2023-07-29T13:14:01;1.50;;;1.30;;
73113;SDS011;61301;51.956;5.876;2023-07-29T13:16:28;1.08;;;0.82;;
73113;SDS011;61301;51.956;5.876;2023-07-29T13:18:54;1.30;;;1.20;;
73113;SDS011;61301;51.956;5.876;2023-07-29T13:21:21;2.20;;;1.30;;
73113;SDS011;61301;51.956;5.876;2023-07-29T13:23:47;1.70;;;1.20;;
73113;SDS011;61301;51.956;5.876;2023-07-29T13:26:13;1.70;;;1.48;;
73113;SDS011;61301;51.956;5.876;2023-07-29T13:28:39;3.45;;;1.60;;
73113;SDS011;61301;51.956;5.876;2023-07-29T13:31:05;3.17;;;1.60;;
73113;SDS011;61301;51.956;5.876;2023-07-29T13:33:31;1.40;;;1.27;;
73113;SDS011;61301;51.956;5.876;2023-07-29T13:36:00;1.38;;;1.10;;
73113;SDS011;61301;51.956;5.876;2023-07-29T13:38:28;2.75;;;1.80;;
73113;SDS011;61301;51.956;5.876;2023-07-29T13:40:55;1.70;;;1.25;;
73113;SDS011;61301;51.956;5.876;2023-07-29T13:43:21;1.70;;;1.40;;
73113;SDS011;61301;51.956;5.876;2023-07-29T13:45:47;3.83;;;1.80;;
73113;SDS011;61301;51.956;5.876;2023-07-29T13:48:15;2.20;;;1.50;;
73113;SDS011;61301;51.956;5.876;2023-07-29T13:50:41;2.58;;;2.08;;
73113;SDS011;61301;51.956;5.876;2023-07-29T13:53:09;3.80;;;2.15;;
73113;SDS011;61301;51.956;5.876;2023-07-29T13:55:35;2.55;;;1.75;;
73113;SDS011;61301;51.956;5.876;2023-07-29T13:58:01;1.90;;;1.45;;
73113;SDS011;61301;51.956;5.876;2023-07-29T14:00:27;2.03;;;1.77;;
73113;SDS011;61301;51.956;5.876;2023-07-29T14:02:53;1.30;;;1.20;;
73113;SDS011;61301;51.956;5.876;2023-07-29T14:05:19;1.83;;;1.30;;
73113;SDS011;61301;51.956;5.876;2023-07-29T14:07:46;1.80;;;1.40;;
73113;SDS011;61301;51.956;5.876;2023-07-29T14:10:12;1.90;;;1.05;;
73113;SDS011;61301;51.956;5.876;2023-07-29T14:12:38;2.00;;;1.02;;
73113;SDS011;61301;51.956;5.876;2023-07-29T14:15:04;1.25;;;1.15;;
73113;SDS011;61301;51.956;5.876;2023-07-29T14:17:31;1.50;;;0.98;;
73113;SDS011;61301;51.956;5.876;2023-07-29T14:19:57;2.10;;;1.58;;
73113;SDS011;61301;51.956;5.876;2023-07-29T14:22:23;2.58;;;1.15;;
73113;SDS011;61301;51.956;5.876;2023-07-29T14:24:49;1.52;;;1.20;;
73113;SDS011;61301;51.956;5.876;2023-07-29T14:27:15;1.48;;;1.27;;
73113;SDS011;61301;51.956;5.876;2023-07-29T14:29:42;1.30;;;0.98;;
73113;SDS011;61301;51.956;5.876;2023-07-29T14:32:11;2.15;;;1.10;;
73113;SDS011;61301;51.956;5.876;2023-07-29T14:34:37;1.30;;;1.20;;
73113;SDS011;61301;51.956;5.876;2023-07-29T14:37:04;1.25;;;1.02;;
73113;SDS011;61301;51.956;5.876;2023-07-29T14:39:30;2.95;;;1.30;;
73113;SDS011;61301;51.956;5.876;2023-07-29T14:41:56;2.38;;;1.40;;
73113;SDS011;61301;51.956;5.876;2023-07-29T14:44:22;1.23;;;1.00;;
73113;SDS011;61301;51.956;5.876;2023-07-29T14:46:48;1.48;;;1.30;;
73113;SDS011;61301;51.956;5.876;2023-07-29T14:49:14;1.52;;;1.20;;
73113;SDS011;61301;51.956;5.876;2023-07-29T14:51:40;1.90;;;1.50;;
73113;SDS011;61301;51.956;5.876;2023-07-29T14:54:06;3.00;;;1.40;;
73113;SDS011;61301;51.956;5.876;2023-07-29T14:56:32;0.80;;;0.80;;